Time;durP1;ratioP1;P1;durP2;ratioP2;P2;SDS_P1;SDS_P2;PMS_P1;PMS_P2;Temp;Humidity;BMP_temperature;BMP_pressure;BME280_temperature;BME280_humidity;BME280_pressure;Samples;Min_cycle;Max_cycle;Signal;HPM_P1;HPM_P2
2022/03/21 00:00:36;;;;;;;26.00;13.57;;;;;;;5.99;nan;100785.66;4871096;29;20210;-76
2022/03/21 00:03:02;;;;;;;19.77;11.50;;;;;;;5.97;nan;100783.09;4881776;29;20720;-76
2022/03/21 00:05:30;;;;;;;19.00;13.43;;;;;;;5.93;nan;100783.19;4871042;29;20211;-76
2022/03/21 00:07:56;;;;;;;14.20;9.48;;;;;;;5.92;nan;100778.88;4870188;29;20299;-77
2022/03/21 00:10:22;;;;;;;23.77;10.98;;;;;;;5.93;nan;100781.47;4870199;29;20295;-76
2022/03/21 00:12:49;;;;;;;23.60;12.63;;;;;;;5.92;nan;100790.16;4873433;29;20240;-77
2022/03/21 00:15:15;;;;;;;27.35;12.02;;;;;;;5.92;nan;100790.16;4870256;29;20563;-76
2022/03/21 00:17:41;;;;;;;20.00;11.20;;;;;;;5.90;nan;100791.09;4872995;29;20208;-77
2022/03/21 00:20:16;;;;;;;10.10;8.13;;;;;;;5.82;nan;100793.88;4871696;29;20257;-77
2022/03/21 00:22:42;;;;;;;10.50;6.10;;;;;;;5.68;nan;100794.22;4872165;29;21156;-76
2022/03/21 00:25:08;;;;;;;11.95;8.77;;;;;;;5.58;nan;100791.88;4872537;29;20712;-77
2022/03/21 00:27:38;;;;;;;12.52;7.57;;;;;;;5.54;nan;100793.72;4875426;29;20219;-76
2022/03/21 00:30:09;;;;;;;11.43;7.70;;;;;;;5.49;nan;100801.63;4870048;29;20290;-77
2022/03/21 00:32:37;;;;;;;10.13;8.07;;;;;;;5.45;nan;100805.19;4860643;29;20237;-76
2022/03/21 00:35:04;;;;;;;11.77;8.10;;;;;;;5.43;nan;100801.78;4873151;29;20262;-76
2022/03/21 00:37:31;;;;;;;12.45;8.30;;;;;;;5.42;nan;100801.81;4865903;29;20207;-76
2022/03/21 00:39:57;;;;;;;10.68;8.30;;;;;;;5.41;nan;100802.72;4866951;29;20210;-76
2022/03/21 00:42:23;;;;;;;15.00;8.32;;;;;;;5.41;nan;100805.31;4868643;29;20211;-76
2022/03/21 00:44:48;;;;;;;13.80;9.97;;;;;;;5.39;nan;100812.31;4872181;29;20737;-76
2022/03/21 00:47:16;;;;;;;11.60;8.60;;;;;;;5.31;nan;100812.47;4873737;29;20250;-77
2022/03/21 00:49:43;;;;;;;9.95;8.10;;;;;;;5.27;nan;100814.31;4871667;29;20238;-76
2022/03/21 00:52:09;;;;;;;10.35;7.10;;;;;;;5.26;nan;100811.72;4869500;29;20211;-77
2022/03/21 00:54:35;;;;;;;11.30;8.00;;;;;;;5.27;nan;100810.84;4874624;29;20231;-76
2022/03/21 00:57:00;;;;;;;14.50;8.93;;;;;;;5.27;nan;100811.69;4873667;29;20464;-77
2022/03/21 00:59:26;;;;;;;8.13;5.40;;;;;;;5.26;nan;100814.31;4873043;29;20290;-76
2022/03/21 01:01:51;;;;;;;11.70;7.95;;;;;;;5.27;nan;100811.69;4871689;29;21004;-76
2022/03/21 01:04:17;;;;;;;9.13;7.77;;;;;;;5.25;nan;100812.63;4868009;29;20254;-76
2022/03/21 01:06:42;;;;;;;14.20;6.80;;;;;;;5.22;nan;100817.91;4867548;29;21271;-76
2022/03/21 01:09:09;;;;;;;8.03;7.20;;;;;;;5.21;nan;100818.78;4866143;29;20238;-76
2022/03/21 01:11:35;;;;;;;13.38;8.18;;;;;;;5.25;nan;100817.84;4870435;29;20227;-76
2022/03/21 01:14:02;;;;;;;8.20;7.23;;;;;;;5.27;nan;100822.13;4867308;29;20346;-77
2022/03/21 01:16:27;;;;;;;11.15;7.05;;;;;;;5.28;nan;100826.44;4872243;29;20609;-76
2022/03/21 01:18:53;;;;;;;10.17;7.10;;;;;;;5.28;nan;100825.56;4866514;29;20207;-77
2022/03/21 01:21:18;;;;;;;12.53;8.10;;;;;;;5.27;nan;100829.09;4866176;29;20291;-76
2022/03/21 01:23:44;;;;;;;22.87;9.60;;;;;;;5.18;nan;100824.91;4863612;29;20670;-77
2022/03/21 01:26:09;;;;;;;12.23;9.00;;;;;;;5.05;nan;100824.34;4868493;29;20222;-76
2022/03/21 01:28:34;;;;;;;13.30;9.67;;;;;;;5.01;nan;100829.63;4872620;29;21472;-76
2022/03/21 01:31:00;;;;;;;11.67;7.70;;;;;;;4.99;nan;100834.00;4872161;29;20226;-77
2022/03/21 01:33:27;;;;;;;13.07;7.60;;;;;;;4.95;nan;100835.84;4869012;29;21369;-76
2022/03/21 01:35:52;;;;;;;10.07;8.00;;;;;;;4.88;nan;100839.44;4869616;29;20211;-76
2022/03/21 01:38:17;;;;;;;9.53;7.93;;;;;;;4.87;nan;100836.00;4871386;29;20219;-76
2022/03/21 01:40:43;;;;;;;12.97;8.10;;;;;;;4.89;nan;100841.19;4870749;29;20208;-76
2022/03/21 01:43:10;;;;;;;13.40;9.70;;;;;;;4.87;nan;100838.59;4867471;29;20239;-77
2022/03/21 01:45:36;;;;;;;13.68;8.27;;;;;;;4.89;nan;100841.19;4871877;29;20321;-77
2022/03/21 01:48:01;;;;;;;14.37;7.40;;;;;;;4.90;nan;100835.06;4870062;29;20250;-76
2022/03/21 01:50:27;;;;;;;11.73;7.20;;;;;;;4.88;nan;100837.69;4884872;29;20231;-76
2022/03/21 01:55:43;;;;;;;12.67;10.60;;;;;;;4.81;nan;100840.47;4874193;29;20236;-76
2022/03/21 01:55:44;;;;;;;15.45;8.75;;;;;;;4.78;nan;100838.78;4871393;29;20622;-76
2022/03/21 01:58:11;;;;;;;14.55;9.10;;;;;;;4.75;nan;100843.19;4868563;29;20216;-76
2022/03/21 02:00:37;;;;;;;14.10;8.80;;;;;;;4.74;nan;100838.88;4869679;29;20298;-76
2022/03/21 02:03:03;;;;;;;14.18;9.48;;;;;;;4.74;nan;100836.28;4867555;29;20496;-77
2022/03/21 02:05:33;;;;;;;9.98;8.02;;;;;;;4.73;nan;100834.56;4870917;29;20323;-78
2022/03/21 02:07:59;;;;;;;12.60;7.78;;;;;;;4.70;nan;100832.88;4866413;29;20588;-77
2022/03/21 02:10:24;;;;;;;14.07;7.77;;;;;;;4.63;nan;100832.13;4870192;29;20700;-77
2022/03/21 02:12:50;;;;;;;10.53;6.80;;;;;;;4.58;nan;100830.50;4866793;29;20923;-77
2022/03/21 02:15:15;;;;;;;10.33;8.03;;;;;;;4.56;nan;100838.31;4869194;29;20234;-76
2022/03/21 02:17:45;;;;;;;10.67;7.47;;;;;;;4.49;nan;100834.16;4867603;29;20299;-76
2022/03/21 02:20:16;;;;;;;16.50;7.80;;;;;;;4.40;nan;100836.91;4867113;29;20243;-77
2022/03/21 02:22:58;;;;;;;9.80;7.47;;;;;;;4.35;nan;100838.75;4870081;29;20258;-76
2022/03/21 02:25:32;;;;;;;13.65;7.90;;;;;;;4.35;nan;100833.56;4871469;29;20227;-76
2022/03/21 02:28:04;;;;;;;11.35;8.32;;;;;;;4.39;nan;100835.19;4868000;29;20226;-76
2022/03/21 02:30:32;;;;;;;13.73;8.52;;;;;;;4.42;nan;100832.53;4870614;29;20207;-76
2022/03/21 02:33:00;;;;;;;12.95;9.10;;;;;;;4.52;nan;100831.47;4864653;29;20562;-77
2022/03/21 02:35:28;;;;;;;12.27;8.35;;;;;;;4.57;nan;100836.59;4863574;29;20214;-77
2022/03/21 02:37:56;;;;;;;16.63;8.65;;;;;;;4.61;nan;100838.25;4867829;29;20705;-76
2022/03/21 02:40:22;;;;;;;11.75;7.65;;;;;;;4.61;nan;100831.28;4869784;29;20215;-76
2022/03/21 02:42:47;;;;;;;12.60;7.87;;;;;;;4.62;nan;100843.44;4868443;29;20239;-77
2022/03/21 02:45:13;;;;;;;8.10;7.07;;;;;;;4.64;nan;100836.47;4865420;29;20556;-76
2022/03/21 02:47:38;;;;;;;11.20;7.60;;;;;;;4.64;nan;100838.19;4869292;29;20218;-77
2022/03/21 02:50:07;;;;;;;12.30;8.30;;;;;;;4.60;nan;100839.16;4871199;29;20210;-76
2022/03/21 02:52:33;;;;;;;11.02;9.73;;;;;;;4.57;nan;100834.84;4868001;29;22370;-76
2022/03/21 02:54:59;;;;;;;12.52;6.55;;;;;;;4.53;nan;100830.59;4869113;29;20724;-76
2022/03/21 02:57:24;;;;;;;12.40;8.23;;;;;;;4.49;nan;100831.53;4866847;29;20227;-76
2022/03/21 02:59:50;;;;;;;15.70;8.80;;;;;;;4.48;nan;100837.63;4862394;29;20323;-76
2022/03/21 03:02:15;;;;;;;12.40;7.93;;;;;;;4.47;nan;100833.31;4868820;29;20606;-76
2022/03/21 03:04:41;;;;;;;11.30;7.00;;;;;;;4.44;nan;100839.44;4866793;29;20314;-76
2022/03/21 03:07:06;;;;;;;17.20;8.37;;;;;;;4.41;nan;100846.44;4862787;29;20266;-76
2022/03/21 03:09:33;;;;;;;8.00;6.87;;;;;;;4.35;nan;100841.38;4867733;29;20221;-76
2022/03/21 03:12:00;;;;;;;9.30;7.85;;;;;;;4.31;nan;100839.69;4862817;29;20204;-76
2022/03/21 03:14:25;;;;;;;16.15;9.68;;;;;;;4.28;nan;100839.75;4863702;29;20232;-77
2022/03/21 03:16:51;;;;;;;15.40;9.40;;;;;;;4.27;nan;100846.69;4864562;29;20270;-76
2022/03/21 03:19:16;;;;;;;9.33;8.37;;;;;;;4.28;nan;100843.19;4868142;29;20928;-76
2022/03/21 03:21:46;;;;;;;12.30;7.80;;;;;;;4.29;nan;100838.84;4870531;29;20691;-76
2022/03/21 03:24:12;;;;;;;13.07;8.18;;;;;;;4.27;nan;100840.66;4867413;29;20292;-76
2022/03/21 03:26:37;;;;;;;15.20;8.60;;;;;;;4.27;nan;100848.44;4865812;29;20391;-76
2022/03/21 03:29:03;;;;;;;14.60;8.53;;;;;;;4.24;nan;100854.56;4861623;29;20211;-76
2022/03/21 03:31:29;;;;;;;13.00;8.68;;;;;;;4.22;nan;100838.97;4872349;29;20982;-76
2022/03/21 03:33:55;;;;;;;11.35;8.18;;;;;;;4.22;nan;100851.97;4865169;29;20238;-76
2022/03/21 03:36:21;;;;;;;13.60;10.32;;;;;;;4.25;nan;100858.00;4864032;29;20230;-76
2022/03/21 03:38:47;;;;;;;14.90;9.67;;;;;;;4.24;nan;100866.69;4867900;29;20589;-76
2022/03/21 03:41:14;;;;;;;11.95;8.30;;;;;;;4.22;nan;100862.38;4865296;29;20464;-77
2022/03/21 03:43:43;;;;;;;9.82;7.80;;;;;;;4.23;nan;100860.63;4869011;29;20630;-76
2022/03/21 03:46:08;;;;;;;13.90;7.85;;;;;;;4.22;nan;100854.56;4865656;29;20215;-76
2022/03/21 03:48:34;;;;;;;15.97;8.07;;;;;;;4.22;nan;100857.16;4867310;29;20230;-76
2022/03/21 03:51:00;;;;;;;13.67;8.67;;;;;;;4.22;nan;100853.72;4869988;29;20214;-76
2022/03/21 03:53:25;;;;;;;12.88;8.38;;;;;;;4.19;nan;100854.63;4865130;29;20342;-76
2022/03/21 03:55:51;;;;;;;12.57;9.07;;;;;;;4.16;nan;100859.88;4867179;29;20581;-76
2022/03/21 03:58:16;;;;;;;15.40;9.70;;;;;;;4.14;nan;100861.66;4869116;29;20226;-76
2022/03/21 04:00:42;;;;;;;9.70;8.13;;;;;;;4.15;nan;100863.34;4869213;29;20208;-76
2022/03/21 04:05:52;;;;;;;16.50;9.48;;;;;;;4.21;nan;100868.47;4870907;29;20860;-76
2022/03/21 04:08:17;;;;;;;13.77;8.43;;;;;;;4.22;nan;100864.97;4862648;29;20667;-76
2022/03/21 04:10:43;;;;;;;13.80;8.93;;;;;;;4.24;nan;100866.69;4865294;29;20263;-76
2022/03/21 04:13:08;;;;;;;12.00;9.47;;;;;;;4.23;nan;100868.44;4867934;29;20235;-76
2022/03/21 04:15:34;;;;;;;12.80;8.90;;;;;;;4.23;nan;100878.81;4867149;29;20224;-76
2022/03/21 04:18:02;;;;;;;14.30;10.53;;;;;;;4.22;nan;100882.31;4867724;29;20251;-76
2022/03/21 04:20:31;;;;;;;15.00;8.68;;;;;;;4.19;nan;100885.84;4868066;29;20242;-76
2022/03/21 04:22:59;;;;;;;14.23;8.93;;;;;;;4.17;nan;100876.34;4859566;29;20305;-76
2022/03/21 04:25:25;;;;;;;13.02;10.80;;;;;;;4.14;nan;100877.25;4831255;29;20212;-76
2022/03/21 04:27:50;;;;;;;12.00;7.60;;;;;;;4.15;nan;100881.56;4829578;29;20867;-76
2022/03/21 04:30:16;;;;;;;12.50;9.57;;;;;;;4.15;nan;100878.09;4832811;29;20241;-76
2022/03/21 04:32:43;;;;;;;13.67;11.57;;;;;;;4.18;nan;100881.50;4834388;29;20993;-76
2022/03/21 04:35:10;;;;;;;15.40;9.38;;;;;;;4.19;nan;100882.38;4844099;29;20548;-77
2022/03/21 04:37:35;;;;;;;15.90;9.50;;;;;;;4.17;nan;100877.19;4833039;29;20682;-76
2022/03/21 04:40:01;;;;;;;15.43;9.93;;;;;;;4.19;nan;100890.19;4828020;29;20212;-76
2022/03/21 04:42:26;;;;;;;12.73;10.07;;;;;;;4.18;nan;100881.50;4831662;29;20212;-76
2022/03/21 04:44:52;;;;;;;11.20;8.90;;;;;;;4.16;nan;100888.50;4829165;29;20205;-76
2022/03/21 04:47:19;;;;;;;12.03;8.47;;;;;;;4.14;nan;100890.25;4828839;29;20388;-76
2022/03/21 04:49:45;;;;;;;16.30;10.45;;;;;;;4.12;nan;100894.59;4833639;29;20213;-76
2022/03/21 04:52:12;;;;;;;16.33;10.03;;;;;;;4.11;nan;100903.31;4833470;29;20283;-76
2022/03/21 04:54:41;;;;;;;14.02;9.32;;;;;;;4.09;nan;100905.06;4833897;29;20332;-76
2022/03/21 04:57:08;;;;;;;10.23;8.63;;;;;;;4.07;nan;100896.44;4828276;29;20208;-76
2022/03/21 04:59:34;;;;;;;12.95;8.82;;;;;;;4.04;nan;100906.03;4832865;29;20267;-76
2022/03/21 05:02:00;;;;;;;12.85;10.32;;;;;;;4.04;nan;100908.63;4830581;29;20929;-76
2022/03/21 05:04:26;;;;;;;12.30;9.10;;;;;;;4.03;nan;100901.72;4829404;29;20770;-76
2022/03/21 05:06:53;;;;;;;17.23;9.73;;;;;;;3.99;nan;100914.75;4830658;29;20517;-76
2022/03/21 05:09:19;;;;;;;13.90;9.48;;;;;;;3.93;nan;100916.59;4833757;29;21698;-76
2022/03/21 05:11:44;;;;;;;14.23;9.40;;;;;;;3.88;nan;100914.06;4830003;29;20213;-76
2022/03/21 05:14:10;;;;;;;12.90;9.73;;;;;;;3.87;nan;100919.28;4833641;29;20248;-76
2022/03/21 05:16:36;;;;;;;16.53;9.27;;;;;;;3.88;nan;100924.44;4830884;29;20220;-76
2022/03/21 05:19:01;;;;;;;16.23;9.13;;;;;;;3.87;nan;100920.16;4830716;29;20477;-76
2022/03/21 05:21:27;;;;;;;14.50;9.43;;;;;;;3.85;nan;100921.03;4832249;29;20213;-76
2022/03/21 05:32:04;;;;;;;15.00;8.35;;;;;;;3.89;nan;100918.38;4868380;29;20215;-76
2022/03/21 05:37:13;;;;;;;18.38;10.35;;;;;;;3.87;nan;100924.50;4863017;29;20208;-76
2022/03/21 05:40:31;;;;;;;11.20;9.03;;;;;;;3.88;nan;100921.00;4869568;29;20215;-76
2022/03/21 05:42:25;;;;;;;15.05;9.95;;;;;;;3.92;nan;100920.09;4862633;29;20692;-76
2022/03/21 05:44:51;;;;;;;15.63;9.70;;;;;;;3.94;nan;100932.19;4867466;29;20316;-76
2022/03/21 05:47:16;;;;;;;18.90;9.27;;;;;;;3.99;nan;100924.28;4865114;29;20299;-76
2022/03/21 05:49:42;;;;;;;12.33;9.03;;;;;;;4.04;nan;100924.22;4870074;29;20215;-76
2022/03/21 05:52:07;;;;;;;14.60;9.60;;;;;;;4.11;nan;100929.31;4866825;29;20302;-76
2022/03/21 05:54:33;;;;;;;14.90;8.70;;;;;;;4.19;nan;100931.78;4864733;29;20263;-76
2022/03/21 05:56:58;;;;;;;16.10;9.53;;;;;;;4.26;nan;100935.13;4862606;29;20593;-76
2022/03/21 06:02:08;;;;;;;16.88;11.25;;;;;;;4.33;nan;100945.41;4867949;29;20855;-76
2022/03/21 06:04:33;;;;;;;16.97;13.03;;;;;;;4.40;nan;100943.56;4866596;29;20234;-76
2022/03/21 06:06:59;;;;;;;17.97;11.20;;;;;;;4.47;nan;100946.94;4868083;29;21777;-76
2022/03/21 06:09:24;;;;;;;16.90;11.30;;;;;;;4.56;nan;100941.56;4858910;29;20218;-76
2022/03/21 06:11:50;;;;;;;14.10;10.17;;;;;;;4.66;nan;100941.38;4859411;29;20204;-75
2022/03/21 06:14:18;;;;;;;22.33;10.87;;;;;;;4.78;nan;100934.22;4858704;29;22137;-76
2022/03/21 06:16:44;;;;;;;15.52;11.05;;;;;;;4.87;nan;100941.88;4860307;29;20248;-76
2022/03/21 06:19:09;;;;;;;20.57;10.20;;;;;;;4.95;nan;100942.59;4857984;29;20280;-75
2022/03/21 06:21:35;;;;;;;14.73;10.23;;;;;;;5.04;nan;100949.34;4858146;29;20471;-76
2022/03/21 06:24:00;;;;;;;14.67;10.30;;;;;;;5.12;nan;100947.47;4860490;29;21107;-76
2022/03/21 06:26:25;;;;;;;12.27;10.23;;;;;;;5.16;nan;100954.34;4858963;29;20256;-76
2022/03/21 06:28:51;;;;;;;12.30;9.40;;;;;;;5.20;nan;100950.78;4860853;29;20244;-76
2022/03/21 06:31:17;;;;;;;18.60;11.95;;;;;;;5.28;nan;100958.44;4859007;29;21063;-76
2022/03/21 06:33:42;;;;;;;15.30;10.63;;;;;;;5.32;nan;100955.75;4863324;29;20247;-76
2022/03/21 06:36:08;;;;;;;15.23;11.90;;;;;;;5.38;nan;100964.34;4862874;29;20455;-76
2022/03/21 06:38:34;;;;;;;16.70;11.77;;;;;;;5.37;nan;100973.88;4852324;29;20599;-76
2022/03/21 06:41:00;;;;;;;13.07;10.20;;;;;;;5.42;nan;100976.41;4858055;29;20958;-76
2022/03/21 06:43:27;;;;;;;16.23;11.50;;;;;;;5.48;nan;100971.94;4860240;29;20226;-76
2022/03/21 06:45:54;;;;;;;15.35;11.40;;;;;;;5.57;nan;100975.22;4857987;29;20306;-76
2022/03/21 06:48:24;;;;;;;16.58;10.75;;;;;;;5.66;nan;100980.25;4858487;29;20235;-76
2022/03/21 06:50:51;;;;;;;13.73;11.07;;;;;;;5.77;nan;100983.47;4861735;29;20579;-76
2022/03/21 06:53:18;;;;;;;15.95;12.02;;;;;;;5.86;nan;100985.88;4860944;29;20262;-76
2022/03/21 06:55:44;;;;;;;19.55;11.75;;;;;;;5.98;nan;100985.63;4865619;29;20351;-76
2022/03/21 06:58:12;;;;;;;19.35;11.40;;;;;;;6.10;nan;100981.03;4858901;29;20204;-76
2022/03/21 07:00:41;;;;;;;14.18;10.60;;;;;;;6.22;nan;100987.72;4858949;29;20235;-75
2022/03/21 07:03:07;;;;;;;15.38;10.77;;;;;;;6.32;nan;100977.03;4859365;29;20223;-75
2022/03/21 07:05:34;;;;;;;16.02;11.82;;;;;;;6.37;nan;100989.94;4857552;29;20207;-76
2022/03/21 07:08:00;;;;;;;12.50;10.05;;;;;;;6.40;nan;101001.19;4859225;29;20215;-75
2022/03/21 07:10:26;;;;;;;14.63;10.30;;;;;;;6.50;nan;100995.75;4860011;29;20223;-75
2022/03/21 07:12:51;;;;;;;16.57;11.40;;;;;;;6.58;nan;100997.25;4857015;29;20647;-75
2022/03/21 07:15:17;;;;;;;15.83;12.30;;;;;;;6.71;nan;101000.44;4860582;29;20259;-75
2022/03/21 07:17:42;;;;;;;13.17;11.77;;;;;;;6.74;nan;101000.34;4858531;29;20203;-73
2022/03/21 07:20:10;;;;;;;16.30;12.20;;;;;;;6.79;nan;100997.63;4859767;29;21021;-75
2022/03/21 07:22:35;;;;;;;17.15;13.05;;;;;;;6.89;nan;101000.88;4858561;29;20247;-76
2022/03/21 07:25:01;;;;;;;15.83;11.87;;;;;;;6.96;nan;101008.47;4859716;29;20223;-76
2022/03/21 07:27:26;;;;;;;15.73;12.70;;;;;;;7.09;nan;101007.25;4860668;29;20239;-75
2022/03/21 07:29:51;;;;;;;15.63;11.90;;;;;;;7.25;nan;101001.63;4861265;29;20218;-75
2022/03/21 07:32:18;;;;;;;15.23;11.03;;;;;;;7.44;nan;101002.81;4864139;29;20228;-75
2022/03/21 07:34:43;;;;;;;15.55;10.73;;;;;;;7.66;nan;101000.44;4863558;29;20353;-75
2022/03/21 07:37:09;;;;;;;14.70;10.70;;;;;;;7.87;nan;100998.94;4863257;29;20633;-75
2022/03/21 07:39:36;;;;;;;13.40;10.40;;;;;;;8.08;nan;101007.06;4864147;29;20243;-75
2022/03/21 07:42:02;;;;;;;11.60;9.18;;;;;;;8.29;nan;101009.00;4861409;29;20227;-75
2022/03/21 07:47:22;;;;;;;15.25;9.20;;;;;;;8.63;nan;101008.78;4863003;29;20230;-75
2022/03/21 07:49:49;;;;;;;15.57;11.20;;;;;;;8.83;nan;101008.13;4862744;29;20668;-75
2022/03/21 07:52:18;;;;;;;15.38;8.88;;;;;;;8.98;nan;101011.97;4860194;29;20307;-75
2022/03/21 07:54:51;;;;;;;14.60;9.88;;;;;;;9.09;nan;101004.59;4863139;29;20286;-75
2022/03/21 07:57:17;;;;;;;17.90;10.18;;;;;;;9.14;nan;101008.81;4862481;29;20215;-75
2022/03/21 07:59:42;;;;;;;12.90;8.90;;;;;;;9.23;nan;101003.25;4858112;29;20208;-74
2022/03/21 08:02:08;;;;;;;18.40;12.00;;;;;;;9.59;nan;101005.47;4860958;29;20561;-74
2022/03/21 08:04:33;;;;;;;10.73;9.10;;;;;;;10.03;nan;101010.78;4859346;29;20312;-74
2022/03/21 08:06:59;;;;;;;12.70;9.97;;;;;;;10.65;nan;101003.94;4859177;29;20259;-74
2022/03/21 08:09:27;;;;;;;11.88;10.07;;;;;;;11.35;nan;101014.06;4860166;29;20207;-74
2022/03/21 08:11:54;;;;;;;12.77;9.93;;;;;;;11.96;nan;101002.53;4861224;29;20207;-74
2022/03/21 08:14:20;;;;;;;12.65;9.43;;;;;;;12.45;nan;101005.47;4857851;29;20235;-74
2022/03/21 08:16:46;;;;;;;12.25;8.88;;;;;;;12.96;nan;100998.50;4862235;29;21358;-74
2022/03/21 08:19:11;;;;;;;11.53;9.50;;;;;;;13.48;nan;100998.44;4863053;29;20228;-74
2022/03/21 08:21:36;;;;;;;15.33;10.00;;;;;;;13.81;nan;100992.25;4864261;29;20220;-74
2022/03/21 08:24:03;;;;;;;13.50;9.70;;;;;;;14.16;nan;100990.28;4861751;29;21340;-74
2022/03/21 08:26:29;;;;;;;17.65;10.50;;;;;;;14.78;nan;100986.78;4863567;29;20251;-74
2022/03/21 08:28:54;;;;;;;13.83;9.50;;;;;;;15.18;nan;100985.25;4862893;29;20945;-75
2022/03/21 08:31:19;;;;;;;14.70;10.30;;;;;;;15.33;nan;100982.59;4858859;29;20211;-75
2022/03/21 08:33:45;;;;;;;11.33;9.30;;;;;;;15.52;nan;100982.31;4859805;29;20326;-75
2022/03/21 08:36:12;;;;;;;11.63;9.87;;;;;;;15.78;nan;100978.91;4860385;29;20220;-75
2022/03/21 08:38:39;;;;;;;14.15;9.25;;;;;;;16.17;nan;100977.28;4861467;29;20227;-74
2022/03/21 08:41:04;;;;;;;14.48;9.85;;;;;;;16.52;nan;100980.25;4862344;29;20782;-74
2022/03/21 08:43:30;;;;;;;12.13;9.20;;;;;;;16.62;nan;100975.19;4861017;29;20755;-75
2022/03/21 08:45:55;;;;;;;14.10;8.97;;;;;;;16.87;nan;100969.09;4862142;29;20206;-74
2022/03/21 08:49:23;;;;;;;15.43;8.40;;;;;;;17.15;nan;100967.22;4859399;29;20205;-75
2022/03/21 08:51:06;;;;;;;11.27;8.85;;;;;;;17.42;nan;100967.09;4857605;29;20209;-75
2022/03/21 08:53:32;;;;;;;10.60;9.10;;;;;;;17.21;nan;100961.47;4861043;29;20242;-74
2022/03/21 08:55:57;;;;;;;15.33;8.43;;;;;;;17.07;nan;100969.56;4861127;29;20882;-74
2022/03/21 08:58:23;;;;;;;13.87;8.73;;;;;;;17.16;nan;100964.44;4861508;29;20525;-74
2022/03/21 09:00:48;;;;;;;10.93;8.27;;;;;;;17.23;nan;100964.88;4860395;29;20200;-74
2022/03/21 09:03:13;;;;;;;9.17;8.00;;;;;;;17.42;nan;100959.13;4862867;29;20882;-74
2022/03/21 09:05:39;;;;;;;9.03;7.73;;;;;;;17.47;nan;100965.81;4857715;29;20206;-74
2022/03/21 09:08:04;;;;;;;12.07;8.37;;;;;;;17.35;nan;100961.34;4860664;29;20866;-75
2022/03/21 09:10:30;;;;;;;9.70;8.27;;;;;;;17.11;nan;100961.25;4858841;29;21019;-73
2022/03/21 09:12:55;;;;;;;10.63;7.90;;;;;;;17.03;nan;100964.44;4858948;29;20228;-73
2022/03/21 09:15:22;;;;;;;12.67;8.37;;;;;;;16.96;nan;100962.34;4856495;29;20284;-73
2022/03/21 09:17:47;;;;;;;10.38;7.65;;;;;;;16.78;nan;100962.63;4858884;29;20865;-72
2022/03/21 09:20:14;;;;;;;9.93;7.73;;;;;;;16.71;nan;100963.09;4860602;29;20893;-73
2022/03/21 09:22:39;;;;;;;9.02;7.90;;;;;;;16.55;nan;100961.50;4858209;29;20662;-74
2022/03/21 09:25:05;;;;;;;8.80;7.73;;;;;;;16.53;nan;100963.41;4856998;29;20272;-75
2022/03/21 09:27:31;;;;;;;10.40;7.60;;;;;;;16.37;nan;100960.06;4854110;29;20220;-74
2022/03/21 09:29:56;;;;;;;15.93;9.50;;;;;;;16.26;nan;100954.63;4857686;29;20457;-73
2022/03/21 09:32:22;;;;;;;12.97;9.37;;;;;;;16.29;nan;100951.78;4856427;29;20643;-74
2022/03/21 09:34:48;;;;;;;13.53;10.20;;;;;;;16.31;nan;100956.03;4857600;29;20247;-73
2022/03/21 09:37:14;;;;;;;9.63;7.93;;;;;;;16.30;nan;100956.97;4853845;29;21090;-74
2022/03/21 09:39:39;;;;;;;13.73;9.10;;;;;;;16.32;nan;100951.56;4862110;29;20204;-73
2022/03/21 09:42:05;;;;;;;11.17;8.30;;;;;;;16.30;nan;100945.50;4862199;29;20843;-75
2022/03/21 09:44:30;;;;;;;11.30;8.80;;;;;;;16.29;nan;100943.81;4859632;29;20263;-74
2022/03/21 09:46:59;;;;;;;18.93;10.30;;;;;;;16.14;nan;100941.22;4856992;29;20466;-73
2022/03/21 09:49:30;;;;;;;11.02;9.35;;;;;;;16.03;nan;100935.75;4859088;29;20214;-75
2022/03/21 09:51:58;;;;;;;13.20;10.23;;;;;;;16.02;nan;100933.22;4856695;29;20243;-75
2022/03/21 09:54:23;;;;;;;10.02;8.77;;;;;;;16.01;nan;100932.34;4861505;29;20241;-73
2022/03/21 09:56:49;;;;;;;11.40;8.30;;;;;;;16.05;nan;100927.72;4858232;29;20211;-74
2022/03/21 09:59:14;;;;;;;12.40;9.43;;;;;;;16.11;nan;100935.28;4860488;29;20208;-74
2022/03/21 10:01:42;;;;;;;12.90;11.50;;;;;;;16.12;nan;100924.59;4859077;29;20219;-73
2022/03/21 10:04:08;;;;;;;13.50;10.00;;;;;;;15.92;nan;100923.22;4865400;29;20240;-76
2022/03/21 10:06:40;;;;;;;11.57;9.40;;;;;;;15.87;nan;100924.47;4859010;29;20243;-76
2022/03/21 10:09:10;;;;;;;9.55;8.60;;;;;;;15.92;nan;100933.81;4860602;29;20292;-73
2022/03/21 10:11:36;;;;;;;13.52;9.60;;;;;;;15.95;nan;100927.47;4856235;29;20275;-73
2022/03/21 10:14:21;;;;;;;11.35;8.30;;;;;;;16.06;nan;100926.75;4855264;29;20436;-72
2022/03/21 10:16:59;;;;;;;10.43;9.35;;;;;;;16.21;nan;100920.47;4854589;29;20301;-74
2022/03/21 10:19:25;;;;;;;11.50;9.82;;;;;;;16.29;nan;100914.66;4857530;29;20233;-73
2022/03/21 10:22:06;;;;;;;13.18;8.18;;;;;;;16.36;nan;100913.28;4857717;29;20582;-71
2022/03/21 10:24:43;;;;;;;8.57;7.10;;;;;;;16.34;nan;100908.09;4857700;29;20250;-74
2022/03/21 10:27:36;;;;;;;13.13;8.13;;;;;;;16.34;nan;100918.69;4859690;29;20702;-75
2022/03/21 10:30:09;;;;;;;9.38;7.40;;;;;;;16.34;nan;100902.78;4859728;29;20244;-75
2022/03/21 10:32:42;;;;;;;10.60;8.70;;;;;;;16.48;nan;100912.47;4860541;29;20508;-77
2022/03/21 10:35:14;;;;;;;10.73;8.57;;;;;;;16.49;nan;100900.88;4859523;29;20209;-74
2022/03/21 10:37:50;;;;;;;9.70;7.53;;;;;;;16.57;nan;100903.88;4855563;29;20299;-76
2022/03/21 10:40:21;;;;;;;15.30;8.52;;;;;;;16.58;nan;100900.28;4858117;29;20482;-75
2022/03/21 10:42:52;;;;;;;12.53;9.63;;;;;;;16.67;nan;100890.00;4856860;29;20357;-74
2022/03/21 10:45:18;;;;;;;12.07;9.67;;;;;;;16.66;nan;100893.59;4856406;29;20477;-76
2022/03/21 10:47:51;;;;;;;11.33;9.17;;;;;;;16.60;nan;100890.41;4862668;29;20494;-75
2022/03/21 10:50:30;;;;;;;9.77;8.02;;;;;;;16.67;nan;100882.03;4854785;29;20482;-76
2022/03/21 10:53:07;;;;;;;11.70;9.80;;;;;;;16.63;nan;100886.69;4865675;29;21307;-75
2022/03/21 10:55:33;;;;;;;10.90;8.23;;;;;;;16.53;nan;100883.81;4855351;29;20569;-76
2022/03/21 10:57:59;;;;;;;10.53;8.47;;;;;;;16.46;nan;100879.88;4860681;29;20327;-76
2022/03/21 11:00:28;;;;;;;15.03;7.53;;;;;;;16.50;nan;100885.81;4863508;29;20454;-75
2022/03/21 11:03:09;;;;;;;11.02;7.90;;;;;;;16.47;nan;100868.34;4867790;29;20543;-76
2022/03/21 11:05:39;;;;;;;12.17;8.13;;;;;;;16.49;nan;100874.38;4864466;29;20458;-77
2022/03/21 11:08:07;;;;;;;9.97;8.10;;;;;;;16.52;nan;100866.19;4868925;29;20545;-75
2022/03/21 11:10:33;;;;;;;10.02;8.40;;;;;;;16.52;nan;100863.53;4867616;29;20552;-75
2022/03/21 11:13:03;;;;;;;13.97;9.37;;;;;;;16.64;nan;100863.69;4868071;29;20330;-76
2022/03/21 11:15:29;;;;;;;12.77;9.67;;;;;;;16.74;nan;100852.31;4865813;29;20203;-75
2022/03/21 11:17:55;;;;;;;10.90;8.77;;;;;;;16.79;nan;100854.66;4863289;29;20466;-74
2022/03/21 11:20:21;;;;;;;12.20;8.50;;;;;;;16.81;nan;100847.47;4864879;29;20461;-76
2022/03/21 11:22:47;;;;;;;15.23;8.60;;;;;;;16.82;nan;100846.50;4858635;29;20668;-75
2022/03/21 11:25:15;;;;;;;12.23;8.13;;;;;;;16.89;nan;100844.28;4862406;29;20253;-75
2022/03/21 11:28:19;;;;;;;10.70;9.40;;;;;;;16.89;nan;100839.81;4868864;29;20944;-75
2022/03/21 11:31:09;;;;;;;11.77;8.93;;;;;;;16.80;nan;100841.31;4861316;29;20494;-76
2022/03/21 11:33:45;;;;;;;10.50;7.27;;;;;;;16.77;nan;100833.56;4862669;29;20973;-75
2022/03/21 11:36:11;;;;;;;10.37;8.07;;;;;;;16.81;nan;100824.41;4863520;29;20552;-76
2022/03/21 11:38:46;;;;;;;8.47;7.67;;;;;;;16.92;nan;100828.97;4860887;29;20470;-74
2022/03/21 11:41:23;;;;;;;11.37;8.33;;;;;;;16.99;nan;100819.63;4865186;29;20490;-75
2022/03/21 11:44:03;;;;;;;9.67;7.80;;;;;;;16.99;nan;100816.97;4867637;29;20526;-76
2022/03/21 11:46:30;;;;;;;16.03;8.67;;;;;;;17.00;nan;100816.00;4868890;29;20496;-76
2022/03/21 11:48:58;;;;;;;15.83;9.93;;;;;;;17.02;nan;100813.25;4864979;29;20455;-75
2022/03/21 11:51:26;;;;;;;12.03;9.47;;;;;;;17.03;nan;100814.94;4867197;29;20488;-75
2022/03/21 11:53:54;;;;;;;12.37;8.10;;;;;;;16.99;nan;100806.34;4865919;29;20490;-74
2022/03/21 11:56:44;;;;;;;11.43;8.67;;;;;;;16.98;nan;100807.28;4866491;29;20451;-75
2022/03/21 11:59:35;;;;;;;11.13;8.97;;;;;;;17.06;nan;100798.78;4865560;29;20459;-75